Time;durP1;ratioP1;P1;durP2;ratioP2;P2;SDS_P1;SDS_P2;PMS_P1;PMS_P2;Temp;Humidity;BMP_temperature;BMP_pressure;BME280_temperature;BME280_humidity;BME280_pressure;Samples;Min_cycle;Max_cycle;Signal;HPM_P1;HPM_P2
2023/06/09 00:02:18;;;;;;;6.85;4.93;;;;;;;;;;4992843;28;20036;-74
2023/06/09 00:04:44;;;;;;;9.10;6.30;;;;;;;;;;5010706;28;20022;-73
2023/06/09 00:07:10;;;;;;;12.27;4.82;;;;;;;;;;4992746;28;20096;-73
2023/06/09 00:09:35;;;;;;;7.05;4.85;;;;;;;;;;5009985;28;20339;-73
2023/06/09 00:12:02;;;;;;;6.70;5.32;;;;;;;;;;5010432;28;20041;-73
2023/06/09 00:14:28;;;;;;;7.25;5.35;;;;;;;;;;5010626;28;20112;-72
2023/06/09 00:16:55;;;;;;;10.15;5.20;;;;;;;;;;4993756;28;20573;-73
2023/06/09 00:19:22;;;;;;;9.32;5.93;;;;;;;;;;4995866;28;20040;-73
2023/06/09 00:21:50;;;;;;;6.63;5.07;;;;;;;;;;4995248;28;20492;-73
2023/06/09 00:24:25;;;;;;;8.50;5.20;;;;;;;;;;5012998;28;20034;-73
2023/06/09 00:26:51;;;;;;;8.85;5.40;;;;;;;;;;5012908;28;20033;-73
2023/06/09 00:29:19;;;;;;;12.10;5.32;;;;;;;;;;4995380;28;20028;-73
2023/06/09 00:31:44;;;;;;;5.68;5.05;;;;;;;;;;4994739;28;20025;-73
2023/06/09 00:34:10;;;;;;;7.30;5.22;;;;;;;;;;4995246;28;20044;-73
2023/06/09 00:36:36;;;;;;;6.57;5.63;;;;;;;;;;5012812;28;20312;-73
2023/06/09 00:39:02;;;;;;;7.57;6.05;;;;;;;;;;4995112;28;20116;-73
2023/06/09 00:41:28;;;;;;;8.68;5.43;;;;;;;;;;5012874;28;20036;-73
2023/06/09 00:43:55;;;;;;;11.20;4.97;;;;;;;;;;4994603;28;20037;-73
2023/06/09 00:46:22;;;;;;;7.50;5.15;;;;;;;;;;5012935;28;20033;-72
2023/06/09 00:48:49;;;;;;;6.63;5.13;;;;;;;;;;4994880;28;20030;-72
2023/06/09 00:51:16;;;;;;;6.90;5.18;;;;;;;;;;5012448;28;20034;-72
2023/06/09 00:53:42;;;;;;;8.57;5.40;;;;;;;;;;5012465;28;20144;-72
2023/06/09 00:56:07;;;;;;;8.43;6.03;;;;;;;;;;5012765;28;20431;-72
2023/06/09 00:58:33;;;;;;;7.93;4.93;;;;;;;;;;4994574;28;20038;-72
2023/06/09 01:00:59;;;;;;;10.40;5.70;;;;;;;;;;5012460;28;20054;-73
2023/06/09 01:03:26;;;;;;;9.13;4.97;;;;;;;;;;4994652;28;20105;-73
2023/06/09 01:06:02;;;;;;;9.13;5.07;;;;;;;;;;4994487;28;20025;-72
2023/06/09 01:08:41;;;;;;;9.45;5.68;;;;;;;;;;4994749;28;20033;-73
2023/06/09 01:11:43;;;;;;;8.88;6.22;;;;;;;;;;5012541;28;20025;-73
2023/06/09 01:14:17;;;;;;;9.02;5.00;;;;;;;;;;4994668;28;20387;-73
2023/06/09 01:16:52;;;;;;;15.50;5.30;;;;;;;;;;5012059;28;20083;-72
2023/06/09 01:19:43;;;;;;;10.68;5.70;;;;;;;;;;4994613;28;20029;-72
2023/06/09 01:22:17;;;;;;;8.43;5.93;;;;;;;;;;4995282;28;20041;-72
2023/06/09 01:25:24;;;;;;;9.80;6.57;;;;;;;;;;4994911;28;20492;-72
2023/06/09 01:27:51;;;;;;;12.65;6.57;;;;;;;;;;4941045;28;20030;-72
2023/06/09 01:30:18;;;;;;;9.27;7.05;;;;;;;;;;4994942;28;20033;-72
2023/06/09 01:32:44;;;;;;;9.80;7.10;;;;;;;;;;4994374;28;20536;-73
2023/06/09 01:35:11;;;;;;;8.95;6.53;;;;;;;;;;4994205;28;20034;-73
2023/06/09 01:37:37;;;;;;;10.93;7.80;;;;;;;;;;5011796;28;20037;-73
2023/06/09 01:40:03;;;;;;;10.13;5.90;;;;;;;;;;4994463;28;20098;-73
2023/06/09 01:42:29;;;;;;;7.80;6.30;;;;;;;;;;4994761;28;20438;-73
2023/06/09 01:44:55;;;;;;;9.70;6.95;;;;;;;;;;4994900;28;20034;-73
2023/06/09 01:47:21;;;;;;;7.22;6.22;;;;;;;;;;4995179;28;20083;-73
2023/06/09 01:50:05;;;;;;;10.20;6.22;;;;;;;;;;4994644;28;20022;-73
2023/06/09 01:52:40;;;;;;;13.75;6.78;;;;;;;;;;4994605;28;20022;-72
2023/06/09 01:55:28;;;;;;;8.63;6.03;;;;;;;;;;4995889;28;20030;-72
2023/06/09 01:57:59;;;;;;;7.65;6.72;;;;;;;;;;4993799;28;20038;-72
2023/06/09 02:00:26;;;;;;;;;;;;;;;;;;5012063;28;20130;-73
2023/06/09 02:02:56;;;;;;;9.55;6.63;;;;;;;;;;4993173;28;19960;-73
2023/06/09 02:05:22;;;;;;;8.32;6.50;;;;;;;;;;4993384;28;20029;-73
2023/06/09 02:07:51;;;;;;;11.82;7.20;;;;;;;;;;5010753;28;20040;-73
2023/06/09 02:10:19;;;;;;;10.27;7.25;;;;;;;;;;4994081;28;20029;-73
2023/06/09 02:12:45;;;;;;;11.02;7.35;;;;;;;;;;5011725;28;20084;-74
2023/06/09 02:15:10;;;;;;;10.35;7.70;;;;;;;;;;4993961;28;20029;-72
2023/06/09 02:17:36;;;;;;;10.10;7.80;;;;;;;;;;4993611;28;20381;-73
2023/06/09 02:20:03;;;;;;;13.25;8.30;;;;;;;;;;4994624;28;20026;-73
2023/06/09 02:22:29;;;;;;;10.32;7.90;;;;;;;;;;4995225;28;20025;-72
2023/06/09 02:24:55;;;;;;;23.77;12.63;;;;;;;;;;4994588;28;20084;-72
2023/06/09 02:27:21;;;;;;;10.45;7.68;;;;;;;;;;4993710;28;20473;-72
2023/06/09 02:29:47;;;;;;;11.30;7.30;;;;;;;;;;4992813;28;20029;-72
2023/06/09 02:32:13;;;;;;;9.50;7.60;;;;;;;;;;4993682;28;20533;-73
2023/06/09 02:34:39;;;;;;;16.65;7.68;;;;;;;;;;4992903;28;20402;-72
2023/06/09 02:37:07;;;;;;;8.63;7.32;;;;;;;;;;5010831;28;20029;-72
2023/06/09 02:39:34;;;;;;;10.75;7.65;;;;;;;;;;4992160;28;20026;-72
2023/06/09 02:42:00;;;;;;;8.98;7.75;;;;;;;;;;4992739;28;20136;-72
2023/06/09 02:44:25;;;;;;;9.85;7.70;;;;;;;;;;4992855;28;20077;-73
2023/06/09 02:46:51;;;;;;;15.48;7.43;;;;;;;;;;4993014;28;20030;-72
2023/06/09 02:49:16;;;;;;;12.55;7.72;;;;;;;;;;4993185;28;20478;-72
2023/06/09 02:51:42;;;;;;;12.13;8.20;;;;;;;;;;5010477;28;20474;-72
2023/06/09 02:54:08;;;;;;;8.07;6.65;;;;;;;;;;5010183;28;20033;-73
2023/06/09 02:56:34;;;;;;;9.07;7.53;;;;;;;;;;5010717;28;20030;-73
2023/06/09 02:58:59;;;;;;;11.27;7.35;;;;;;;;;;4992470;28;20188;-74
2023/06/09 03:01:27;;;;;;;8.45;6.85;;;;;;;;;;5010080;28;20542;-72
2023/06/09 03:03:52;;;;;;;10.25;7.00;;;;;;;;;;4976301;28;20030;-73
2023/06/09 03:06:19;;;;;;;10.38;7.72;;;;;;;;;;4992452;28;20485;-73
2023/06/09 03:08:45;;;;;;;9.98;7.85;;;;;;;;;;5009025;28;20030;-73
2023/06/09 03:11:11;;;;;;;14.55;7.25;;;;;;;;;;4992951;28;20474;-73
2023/06/09 03:13:37;;;;;;;14.00;7.25;;;;;;;;;;5010119;28;20397;-73
2023/06/09 03:16:03;;;;;;;14.15;7.60;;;;;;;;;;4994814;28;20044;-72
2023/06/09 03:18:29;;;;;;;9.05;7.10;;;;;;;;;;4995116;28;20037;-72
2023/06/09 03:20:55;;;;;;;11.88;7.35;;;;;;;;;;5012569;28;20025;-72
2023/06/09 03:23:22;;;;;;;19.42;8.07;;;;;;;;;;4994364;28;20025;-72
2023/06/09 03:25:51;;;;;;;12.30;7.18;;;;;;;;;;4992687;28;20065;-72
2023/06/09 03:28:17;;;;;;;10.90;7.82;;;;;;;;;;4993492;28;20056;-72
2023/06/09 03:30:43;;;;;;;11.13;7.15;;;;;;;;;;5010243;28;20091;-73
2023/06/09 03:33:08;;;;;;;13.35;7.07;;;;;;;;;;5009934;28;20451;-74
2023/06/09 03:35:34;;;;;;;8.40;7.50;;;;;;;;;;5010541;28;20041;-73
2023/06/09 03:37:59;;;;;;;8.95;7.35;;;;;;;;;;5009856;28;20524;-73
2023/06/09 03:40:25;;;;;;;16.25;7.68;;;;;;;;;;5008284;28;20022;-73
2023/06/09 03:42:51;;;;;;;10.65;7.30;;;;;;;;;;5007496;28;20040;-73
2023/06/09 03:45:16;;;;;;;11.90;7.82;;;;;;;;;;4991453;28;20444;-73
2023/06/09 03:47:42;;;;;;;9.30;7.57;;;;;;;;;;5007480;28;20084;-72
2023/06/09 03:50:08;;;;;;;13.55;8.18;;;;;;;;;;4991731;28;20148;-72
2023/06/09 03:52:33;;;;;;;11.55;7.45;;;;;;;;;;5013085;28;20034;-71
2023/06/09 03:54:59;;;;;;;15.85;8.52;;;;;;;;;;4995445;28;20025;-72
2023/06/09 03:57:25;;;;;;;9.75;8.00;;;;;;;;;;4995961;28;20379;-72
2023/06/09 03:59:50;;;;;;;13.27;7.00;;;;;;;;;;4995962;28;20121;-73
2023/06/09 04:02:16;;;;;;;11.77;8.43;;;;;;;;;;5013891;28;20040;-73
2023/06/09 04:04:41;;;;;;;10.57;9.15;;;;;;;;;;5013472;28;20029;-73
2023/06/09 04:07:07;;;;;;;13.82;8.32;;;;;;;;;;5013279;28;20490;-72
2023/06/09 04:09:34;;;;;;;12.43;7.85;;;;;;;;;;4995628;28;20036;-74
2023/06/09 04:12:00;;;;;;;17.80;9.40;;;;;;;;;;4995692;28;20036;-73
2023/06/09 04:14:26;;;;;;;10.35;7.70;;;;;;;;;;4995261;28;20033;-73
2023/06/09 04:16:52;;;;;;;11.30;7.90;;;;;;;;;;5011707;28;20034;-73
2023/06/09 04:19:17;;;;;;;17.25;8.20;;;;;;;;;;4995265;28;20045;-74
2023/06/09 04:21:43;;;;;;;22.17;9.35;;;;;;;;;;4995531;28;20026;-73
2023/06/09 04:24:10;;;;;;;14.10;8.10;;;;;;;;;;4995283;28;20041;-73
2023/06/09 04:26:37;;;;;;;12.98;8.27;;;;;;;;;;5013093;28;20776;-73
2023/06/09 04:29:03;;;;;;;13.90;7.78;;;;;;;;;;4995448;28;20049;-73
2023/06/09 04:31:33;;;;;;;14.55;9.57;;;;;;;;;;4995342;28;20100;-73
2023/06/09 04:34:12;;;;;;;11.40;9.32;;;;;;;;;;5013189;28;20041;-73
2023/06/09 04:36:39;;;;;;;11.95;8.27;;;;;;;;;;4995440;28;20025;-74
2023/06/09 04:39:09;;;;;;;15.18;8.70;;;;;;;;;;5012661;28;20033;-72
2023/06/09 04:41:37;;;;;;;13.05;8.18;;;;;;;;;;5014640;28;20117;-73
2023/06/09 04:44:05;;;;;;;14.90;9.45;;;;;;;;;;4996724;28;20022;-73
2023/06/09 04:46:37;;;;;;;11.73;7.80;;;;;;;;;;4996751;28;20022;-75
2023/06/09 04:49:10;;;;;;;11.95;8.45;;;;;;;;;;4995739;28;20022;-75
2023/06/09 04:51:49;;;;;;;17.15;12.30;;;;;;;;;;4995512;28;20038;-75
2023/06/09 04:54:16;;;;;;;12.20;8.48;;;;;;;;;;4995249;28;20144;-75
2023/06/09 04:56:43;;;;;;;16.65;10.23;;;;;;;;;;5013009;28;20149;-75
2023/06/09 04:59:12;;;;;;;13.95;11.00;;;;;;;;;;5012322;28;20030;-75
2023/06/09 05:01:38;;;;;;;18.25;10.10;;;;;;;;;;4995167;28;20427;-76
2023/06/09 05:04:07;;;;;;;18.75;10.40;;;;;;;;;;4994670;28;20084;-71
2023/06/09 05:06:33;;;;;;;22.55;12.65;;;;;;;;;;4982810;28;20129;-73
2023/06/09 05:08:58;;;;;;;19.80;11.90;;;;;;;;;;5011448;28;20667;-73
2023/06/09 05:11:24;;;;;;;89.55;55.70;;;;;;;;;;4974992;28;20613;-74
2023/06/09 05:13:50;;;;;;;16.50;12.30;;;;;;;;;;4992738;28;20040;-73
2023/06/09 05:16:15;;;;;;;30.40;11.02;;;;;;;;;;5001719;28;20050;-73
2023/06/09 05:18:44;;;;;;;13.35;10.45;;;;;;;;;;4986971;28;20033;-73
2023/06/09 05:21:12;;;;;;;12.45;9.52;;;;;;;;;;5004828;28;20037;-76
2023/06/09 05:23:39;;;;;;;11.40;9.85;;;;;;;;;;4972776;28;20041;-76
2023/06/09 05:26:05;;;;;;;14.00;9.98;;;;;;;;;;5005032;28;20506;-74
2023/06/09 05:28:33;;;;;;;17.90;10.68;;;;;;;;;;4978646;28;20188;-76
2023/06/09 05:30:59;;;;;;;17.95;11.27;;;;;;;;;;4987670;28;20026;-75
2023/06/09 05:33:25;;;;;;;14.77;10.75;;;;;;;;;;5001253;28;20843;-74
2023/06/09 05:35:50;;;;;;;14.13;10.85;;;;;;;;;;4985799;28;21404;-74
2023/06/09 05:38:16;;;;;;;40.92;25.75;;;;;;;;;;4988796;28;20689;-73
2023/06/09 05:40:43;;;;;;;14.95;10.73;;;;;;;;;;4987602;28;20513;-74
2023/06/09 05:43:08;;;;;;;14.98;11.07;;;;;;;;;;4988929;28;20022;-74
2023/06/09 05:45:34;;;;;;;12.93;9.98;;;;;;;;;;4999397;28;20060;-74
2023/06/09 05:48:00;;;;;;;19.77;11.65;;;;;;;;;;4999084;28;20421;-76
2023/06/09 05:50:25;;;;;;;19.45;12.52;;;;;;;;;;5008257;28;20036;-76
2023/06/09 05:52:51;;;;;;;16.48;12.02;;;;;;;;;;5004901;28;20510;-74
2023/06/09 05:55:17;;;;;;;14.60;10.85;;;;;;;;;;4990805;28;20029;-75
2023/06/09 05:58:02;;;;;;;20.83;11.90;;;;;;;;;;4989685;28;20026;-74
2023/06/09 06:00:30;;;;;;;17.77;11.25;;;;;;;;;;4985440;28;20058;-73
2023/06/09 06:03:00;;;;;;;14.10;10.80;;;;;;;;;;4992577;28;20026;-74
2023/06/09 06:05:26;;;;;;;21.95;14.75;;;;;;;;;;4988614;28;20453;-75
2023/06/09 06:07:52;;;;;;;14.98;11.15;;;;;;;;;;4979927;28;20038;-76
2023/06/09 06:10:18;;;;;;;16.00;11.30;;;;;;;;;;4989619;28;20339;-75
2023/06/09 06:13:03;;;;;;;15.60;10.65;;;;;;;;;;4988599;28;20029;-75
2023/06/09 06:15:29;;;;;;;15.02;10.43;;;;;;;;;;4987250;28;20033;-75
2023/06/09 06:17:54;;;;;;;15.80;11.45;;;;;;;;;;4985285;28;20034;-76
2023/06/09 06:20:20;;;;;;;16.42;11.30;;;;;;;;;;5004410;28;20703;-75
2023/06/09 06:22:46;;;;;;;13.15;10.93;;;;;;;;;;5007522;28;20026;-76
2023/06/09 06:25:13;;;;;;;14.88;12.02;;;;;;;;;;4987258;28;20049;-75
2023/06/09 06:27:47;;;;;;;15.18;11.70;;;;;;;;;;4983926;28;20382;-75
2023/06/09 06:30:13;;;;;;;17.23;12.45;;;;;;;;;;4988252;28;20033;-75
2023/06/09 06:32:48;;;;;;;18.83;14.15;;;;;;;;;;4976775;28;20038;-73
2023/06/09 06:35:25;;;;;;;16.08;11.90;;;;;;;;;;4986471;28;20470;-76
2023/06/09 06:37:50;;;;;;;16.45;11.35;;;;;;;;;;4975092;28;20037;-75
2023/06/09 06:40:16;;;;;;;16.17;11.23;;;;;;;;;;4991588;28;20040;-76
2023/06/09 06:42:42;;;;;;;17.75;11.02;;;;;;;;;;4971083;28;20482;-78
2023/06/09 06:45:08;;;;;;;14.55;11.70;;;;;;;;;;5009434;28;20029;-77
2023/06/09 06:47:33;;;;;;;16.13;11.00;;;;;;;;;;4976647;28;20056;-77
2023/06/09 06:49:59;;;;;;;14.13;10.57;;;;;;;;;;4983932;28;20034;-76
2023/06/09 06:52:27;;;;;;;15.70;10.75;;;;;;;;;;5001808;28;20423;-75
2023/06/09 06:54:52;;;;;;;11.23;9.05;;;;;;;;;;4978473;28;20252;-76
2023/06/09 06:57:18;;;;;;;15.07;10.35;;;;;;;;;;4988270;28;20048;-75
2023/06/09 06:59:45;;;;;;;11.93;10.18;;;;;;;;;;4982152;28;20129;-77
2023/06/09 07:02:11;;;;;;;13.55;10.20;;;;;;;;;;5003484;28;20437;-75
2023/06/09 07:04:36;;;;;;;20.40;10.98;;;;;;;;;;4998317;28;20034;-76
2023/06/09 07:07:02;;;;;;;11.55;9.40;;;;;;;;;;5001918;28;20130;-76
2023/06/09 07:09:29;;;;;;;20.63;9.30;;;;;;;;;;4998784;28;20390;-78
2023/06/09 07:11:55;;;;;;;15.15;8.43;;;;;;;;;;4977652;28;20096;-77
2023/06/09 07:14:21;;;;;;;16.73;9.20;;;;;;;;;;4983781;28;20339;-76
2023/06/09 07:16:46;;;;;;;13.55;8.60;;;;;;;;;;4978222;28;20045;-75
2023/06/09 07:19:12;;;;;;;8.20;7.10;;;;;;;;;;4977448;28;20034;-77
2023/06/09 07:21:40;;;;;;;10.15;7.88;;;;;;;;;;5003139;28;20092;-77
2023/06/09 07:24:06;;;;;;;11.00;7.45;;;;;;;;;;4983364;28;20386;-76
2023/06/09 07:26:32;;;;;;;11.02;7.82;;;;;;;;;;4991443;28;20040;-73
2023/06/09 07:28:58;;;;;;;11.85;7.90;;;;;;;;;;4989536;28;20026;-74
2023/06/09 07:31:25;;;;;;;11.32;7.32;;;;;;;;;;4983637;28;20054;-76
2023/06/09 07:33:50;;;;;;;9.95;6.95;;;;;;;;;;4985991;28;20078;-76
2023/06/09 07:36:16;;;;;;;14.70;7.00;;;;;;;;;;5001797;28;20034;-76
2023/06/09 07:38:46;;;;;;;8.13;6.97;;;;;;;;;;5001472;28;20030;-76
2023/06/09 07:41:12;;;;;;;11.23;7.63;;;;;;;;;;4997186;28;20119;-75
2023/06/09 07:43:37;;;;;;;10.68;7.07;;;;;;;;;;4999157;28;20037;-75
2023/06/09 07:46:03;;;;;;;27.50;9.63;;;;;;;;;;4997953;28;20096;-75
2023/06/09 07:48:28;;;;;;;9.07;7.25;;;;;;;;;;4974197;28;20585;-76
2023/06/09 07:50:54;;;;;;;8.48;6.22;;;;;;;;;;4979386;28;20038;-75
2023/06/09 07:53:24;;;;;;;9.18;6.63;;;;;;;;;;4980213;28;20060;-75
2023/06/09 07:55:49;;;;;;;11.95;6.97;;;;;;;;;;4985269;28;20053;-76
2023/06/09 07:58:22;;;;;;;8.57;6.45;;;;;;;;;;4975777;28;20038;-75
2023/06/09 08:00:50;;;;;;;8.80;5.90;;;;;;;;;;4996091;28;20045;-76
2023/06/09 08:03:15;;;;;;;13.25;6.72;;;;;;;;;;4978074;28;20037;-75
2023/06/09 08:05:42;;;;;;;14.15;6.80;;;;;;;;;;4979917;28;20042;-75
2023/06/09 08:08:08;;;;;;;10.40;7.13;;;;;;;;;;4983768;28;20084;-74
2023/06/09 08:10:34;;;;;;;15.25;7.20;;;;;;;;;;4996395;28;20091;-75
2023/06/09 08:12:59;;;;;;;9.52;6.50;;;;;;;;;;4997378;28;20041;-76
2023/06/09 08:15:25;;;;;;;8.50;6.40;;;;;;;;;;4993011;28;20136;-76
2023/06/09 08:17:51;;;;;;;8.10;5.90;;;;;;;;;;4983149;28;20557;-74
2023/06/09 08:20:18;;;;;;;9.88;6.28;;;;;;;;;;4978590;28;20064;-76
2023/06/09 08:22:44;;;;;;;9.45;6.60;;;;;;;;;;4996887;28;20026;-72
2023/06/09 08:25:11;;;;;;;9.05;6.45;;;;;;;;;;4983587;28;20014;-76
2023/06/09 08:28:16;;;;;;;9.82;7.03;;;;;;;;;;4983174;28;20105;-71
2023/06/09 08:30:43;;;;;;;7.60;5.32;;;;;;;;;;4973820;28;20038;-75
2023/06/09 08:33:10;;;;;;;7.80;6.90;;;;;;;;;;4997581;28;20104;-76
2023/06/09 08:35:36;;;;;;;8.10;5.95;;;;;;;;;;4982435;28;20079;-77
2023/06/09 08:38:01;;;;;;;11.60;6.63;;;;;;;;;;5001185;28;20115;-76
2023/06/09 08:40:27;;;;;;;8.07;6.25;;;;;;;;;;4985600;28;20521;-75
2023/06/09 08:43:00;;;;;;;7.97;5.60;;;;;;;;;;4985024;28;20134;-76
2023/06/09 08:45:29;;;;;;;9.50;6.30;;;;;;;;;;5001513;28;20734;-72
2023/06/09 08:47:59;;;;;;;9.52;6.55;;;;;;;;;;5011040;28;20038;-77
2023/06/09 08:50:29;;;;;;;9.90;6.07;;;;;;;;;;5007944;28;20033;-75
2023/06/09 08:53:10;;;;;;;10.80;6.55;;;;;;;;;;4989645;28;20038;-75
2023/06/09 08:55:37;;;;;;;15.43;7.85;;;;;;;;;;5006308;28;20038;-77
2023/06/09 08:58:04;;;;;;;8.98;7.00;;;;;;;;;;5003616;28;20044;-76
2023/06/09 09:00:31;;;;;;;13.55;7.03;;;;;;;;;;5003435;28;20415;-75
2023/06/09 09:02:57;;;;;;;8.75;6.30;;;;;;;;;;4988569;28;20025;-76
2023/06/09 09:05:23;;;;;;;9.90;7.25;;;;;;;;;;4999842;28;20040;-73
2023/06/09 09:07:49;;;;;;;10.27;6.97;;;;;;;;;;4987639;28;20040;-75
2023/06/09 09:10:18;;;;;;;8.48;7.10;;;;;;;;;;4978087;28;21142;-75
2023/06/09 09:13:06;;;;;;;8.95;6.75;;;;;;;;;;4981378;28;20088;-75
2023/06/09 09:15:31;;;;;;;8.23;6.97;;;;;;;;;;4982648;28;20025;-76
2023/06/09 09:17:57;;;;;;;8.02;7.10;;;;;;;;;;5006183;28;20033;-76
2023/06/09 09:20:32;;;;;;;15.05;8.00;;;;;;;;;;4986256;28;20038;-75
2023/06/09 09:22:58;;;;;;;10.57;6.93;;;;;;;;;;4994701;28;20021;-75
2023/06/09 09:25:26;;;;;;;9.65;7.40;;;;;;;;;;4997108;28;20083;-73
2023/06/09 09:28:07;;;;;;;11.32;6.88;;;;;;;;;;4986199;28;20041;-74
2023/06/09 09:30:43;;;;;;;11.43;7.28;;;;;;;;;;4966188;28;20331;-72
2023/06/09 09:33:10;;;;;;;10.00;7.00;;;;;;;;;;4982882;28;20733;-74
2023/06/09 09:35:38;;;;;;;13.35;7.43;;;;;;;;;;4987466;28;20032;-77
2023/06/09 09:38:25;;;;;;;16.60;7.78;;;;;;;;;;4992603;28;20030;-74
2023/06/09 09:40:53;;;;;;;8.77;7.00;;;;;;;;;;4987938;28;20052;-78
2023/06/09 09:43:21;;;;;;;9.43;7.20;;;;;;;;;;4992012;28;20089;-75
2023/06/09 09:45:52;;;;;;;9.05;7.13;;;;;;;;;;4987777;28;20060;-77
2023/06/09 09:48:20;;;;;;;7.97;6.47;;;;;;;;;;4989480;28;20044;-77
2023/06/09 09:50:50;;;;;;;10.15;6.53;;;;;;;;;;4989628;28;20504;-79
2023/06/09 09:53:24;;;;;;;9.50;6.78;;;;;;;;;;4986415;28;20120;-74
2023/06/09 09:55:52;;;;;;;8.95;6.93;;;;;;;;;;4988396;28;20061;-76
2023/06/09 09:58:19;;;;;;;13.57;8.30;;;;;;;;;;4985338;28;20029;-76
2023/06/09 10:00:46;;;;;;;8.52;7.00;;;;;;;;;;4989889;28;20475;-76
2023/06/09 10:03:17;;;;;;;11.00;7.93;;;;;;;;;;4984967;28;20025;-75
2023/06/09 10:05:49;;;;;;;;;;;;;;;;;;4985202;28;20291;-78
2023/06/09 10:08:28;;;;;;;10.43;7.32;;;;;;;;;;4998145;28;20265;-75
2023/06/09 10:11:02;;;;;;;9.50;7.22;;;;;;;;;;4985456;28;20152;-76
2023/06/09 10:13:28;;;;;;;9.25;7.15;;;;;;;;;;5003642;28;20795;-75
2023/06/09 10:15:55;;;;;;;10.55;7.07;;;;;;;;;;4984770;28;20041;-76
2023/06/09 10:18:21;;;;;;;10.40;6.50;;;;;;;;;;4992033;28;20030;-77
2023/06/09 10:20:48;;;;;;;11.48;8.52;;;;;;;;;;5009107;28;20053;-77
2023/06/09 10:23:15;;;;;;;12.77;7.40;;;;;;;;;;4986514;28;20030;-77
2023/06/09 10:25:42;;;;;;;10.32;7.63;;;;;;;;;;5008009;28;20037;-76
2023/06/09 10:28:09;;;;;;;9.57;6.85;;;;;;;;;;4991527;28;20142;-76
2023/06/09 10:30:36;;;;;;;8.32;7.05;;;;;;;;;;4988979;28;20038;-77
2023/06/09 10:33:09;;;;;;;7.55;6.82;;;;;;;;;;4985609;28;20041;-76
2023/06/09 10:35:37;;;;;;;10.63;7.00;;;;;;;;;;5008705;28;20030;-77
2023/06/09 10:38:22;;;;;;;10.07;7.43;;;;;;;;;;5006769;28;20026;-76
2023/06/09 10:40:57;;;;;;;35.70;28.77;;;;;;;;;;4989917;28;20084;-76
2023/06/09 10:43:44;;;;;;;8.95;6.13;;;;;;;;;;4978824;28;20054;-76
2023/06/09 10:46:12;;;;;;;10.73;7.25;;;;;;;;;;4986119;28;20108;-77
2023/06/09 10:48:49;;;;;;;8.60;7.18;;;;;;;;;;5006054;28;20105;-76
2023/06/09 10:51:26;;;;;;;9.27;7.55;;;;;;;;;;5004051;28;20096;-78
2023/06/09 10:54:14;;;;;;;8.25;7.28;;;;;;;;;;4977150;28;20021;-76
2023/06/09 10:56:46;;;;;;;16.83;7.03;;;;;;;;;;4990898;28;20033;-76
2023/06/09 10:59:27;;;;;;;9.55;7.28;;;;;;;;;;4990498;28;20470;-77
2023/06/09 11:02:05;;;;;;;8.35;7.13;;;;;;;;;;4995697;28;20048;-77
2023/06/09 11:04:45;;;;;;;10.75;7.32;;;;;;;;;;4991428;28;20370;-73
2023/06/09 11:07:18;;;;;;;13.90;8.50;;;;;;;;;;4996366;28;20812;-77
2023/06/09 11:09:47;;;;;;;8.02;7.00;;;;;;;;;;4992599;28;20045;-75
2023/06/09 11:12:38;;;;;;;10.95;7.25;;;;;;;;;;4988400;28;20033;-75
2023/06/09 11:15:09;;;;;;;17.23;7.63;;;;;;;;;;4973927;28;20034;-73
2023/06/09 11:17:40;;;;;;;9.15;7.22;;;;;;;;;;5001717;28;20153;-78
2023/06/09 11:20:11;;;;;;;12.60;6.90;;;;;;;;;;4978860;28;20149;-73
2023/06/09 11:22:48;;;;;;;10.38;7.35;;;;;;;;;;4993553;28;20284;-77
2023/06/09 11:25:20;;;;;;;13.85;7.63;;;;;;;;;;4991622;28;20056;-76
2023/06/09 11:27:55;;;;;;;17.95;13.45;;;;;;;;;;4982168;28;20045;-77
2023/06/09 11:30:23;;;;;;;12.82;7.75;;;;;;;;;;4992824;28;20722;-75
2023/06/09 11:33:00;;;;;;;10.25;7.65;;;;;;;;;;4993580;28;20037;-73
2023/06/09 11:35:35;;;;;;;9.85;7.45;;;;;;;;;;4999485;28;20038;-74
2023/06/09 11:38:08;;;;;;;14.40;10.25;;;;;;;;;;4999214;28;20594;-74
2023/06/09 11:40:36;;;;;;;9.95;8.45;;;;;;;;;;4999517;28;20038;-75
2023/06/09 11:43:22;;;;;;;12.85;9.25;;;;;;;;;;4977714;28;20033;-75
2023/06/09 11:45:49;;;;;;;14.15;9.45;;;;;;;;;;4994408;28;20597;-77
2023/06/09 11:48:18;;;;;;;12.70;8.73;;;;;;;;;;4985040;28;20442;-77
2023/06/09 11:50:45;;;;;;;15.70;10.45;;;;;;;;;;5003586;28;20025;-76
2023/06/09 11:53:24;;;;;;;25.15;11.35;;;;;;;;;;4982428;28;20068;-76
2023/06/09 11:56:04;;;;;;;23.33;10.43;;;;;;;;;;4985936;28;20033;-76
2023/06/09 11:58:29;;;;;;;22.17;9.52;;;;;;;;;;5005766;28;20038;-76
2023/06/09 12:01:00;;;;;;;35.75;19.60;;;;;;;;;;5008537;28;20133;-76
2023/06/09 12:03:38;;;;;;;12.98;8.73;;;;;;;;;;4978812;28;20177;-77
2023/06/09 12:06:06;;;;;;;16.38;8.75;;;;;;;;;;4990243;28;20472;-76
2023/06/09 12:08:32;;;;;;;22.02;12.68;;;;;;;;;;5003580;28;20097;-77
2023/06/09 12:11:01;;;;;;;20.45;10.75;;;;;;;;;;4986370;28;20061;-76
2023/06/09 12:13:26;;;;;;;19.25;9.98;;;;;;;;;;4999718;28;20042;-78
2023/06/09 12:15:53;;;;;;;24.55;14.23;;;;;;;;;;5004336;28;20454;-78
2023/06/09 12:18:18;;;;;;;30.13;17.05;;;;;;;;;;4986857;28;20038;-76
2023/06/09 12:20:46;;;;;;;24.17;11.77;;;;;;;;;;5006140;28;20056;-77
2023/06/09 12:23:14;;;;;;;16.98;12.65;;;;;;;;;;4986889;28;20086;-79
2023/06/09 12:25:48;;;;;;;21.90;16.15;;;;;;;;;;4989045;28;20745;-76
2023/06/09 12:28:23;;;;;;;19.75;11.95;;;;;;;;;;5005949;28;20030;-78
2023/06/09 12:30:51;;;;;;;14.45;10.98;;;;;;;;;;5005297;28;20034;-78
2023/06/09 12:33:25;;;;;;;15.75;11.90;;;;;;;;;;5003182;28;20115;-77
2023/06/09 12:36:03;;;;;;;14.23;10.00;;;;;;;;;;5001982;28;20361;-78
2023/06/09 12:38:28;;;;;;;16.88;10.93;;;;;;;;;;4996186;28;20098;-76
2023/06/09 12:41:09;;;;;;;13.85;8.95;;;;;;;;;;4998503;28;20135;-78
2023/06/09 12:43:59;;;;;;;14.07;10.85;;;;;;;;;;5004573;28;20045;-77
2023/06/09 12:46:43;;;;;;;18.35;10.57;;;;;;;;;;4994585;28;20097;-78
2023/06/09 12:49:10;;;;;;;18.83;11.23;;;;;;;;;;4992939;28;20148;-78
2023/06/09 12:51:43;;;;;;;14.55;11.23;;;;;;;;;;4993824;28;20037;-79
2023/06/09 12:54:12;;;;;;;16.92;12.43;;;;;;;;;;5016267;28;20037;-80
2023/06/09 12:56:50;;;;;;;14.38;10.60;;;;;;;;;;5018737;28;20482;-78
2023/06/09 12:59:53;;;;;;;18.45;10.18;;;;;;;;;;5017126;28;20053;-78
2023/06/09 13:02:25;;;;;;;13.50;8.48;;;;;;;;;;4999523;28;20046;-79
2023/06/09 13:04:58;;;;;;;12.82;8.75;;;;;;;;;;5020450;28;20036;-79
2023/06/09 13:07:25;;;;;;;13.00;8.88;;;;;;;;;;5001390;28;20038;-76
2023/06/09 13:09:56;;;;;;;14.27;8.27;;;;;;;;;;4999898;28;20026;-77
2023/06/09 13:12:22;;;;;;;11.17;7.67;;;;;;;;;;5004535;28;20118;-77
2023/06/09 13:14:52;;;;;;;10.88;7.90;;;;;;;;;;4999939;28;20060;-79
2023/06/09 13:17:24;;;;;;;22.10;13.45;;;;;;;;;;5032930;28;20054;-77
2023/06/09 13:20:02;;;;;;;10.13;6.63;;;;;;;;;;5017426;28;20032;-76
2023/06/09 13:22:28;;;;;;;7.03;5.78;;;;;;;;;;5018106;28;20045;-78
2023/06/09 13:24:56;;;;;;;10.75;5.90;;;;;;;;;;5001270;28;20029;-76
2023/06/09 13:27:26;;;;;;;8.57;5.15;;;;;;;;;;5020385;28;20108;-80
2023/06/09 13:29:52;;;;;;;7.93;4.97;;;;;;;;;;5004005;28;20030;-78
2023/06/09 13:32:19;;;;;;;6.22;5.00;;;;;;;;;;4998447;28;20025;-79
2023/06/09 13:34:56;;;;;;;7.03;4.00;;;;;;;;;;5001520;28;20393;-78
2023/06/09 13:37:26;;;;;;;7.43;4.53;;;;;;;;;;5003505;28;20106;-77
2023/06/09 13:39:56;;;;;;;7.17;4.50;;;;;;;;;;4997993;28;20101;-78
2023/06/09 13:42:22;;;;;;;12.48;5.45;;;;;;;;;;5003410;28;20034;-77
2023/06/09 13:44:47;;;;;;;11.68;6.40;;;;;;;;;;4988682;28;20017;-76
2023/06/09 13:47:14;;;;;;;8.10;4.95;;;;;;;;;;5011228;28;20033;-77
2023/06/09 13:49:44;;;;;;;7.93;4.63;;;;;;;;;;5006636;28;20430;-76
2023/06/09 13:52:09;;;;;;;11.70;5.97;;;;;;;;;;4991513;28;20113;-77
2023/06/09 13:54:35;;;;;;;12.57;5.82;;;;;;;;;;4999833;28;20128;-77
2023/06/09 13:57:02;;;;;;;21.38;6.20;;;;;;;;;;4977253;28;20414;-76
2023/06/09 13:59:28;;;;;;;10.02;5.57;;;;;;;;;;5006125;28;20066;-76
2023/06/09 14:01:54;;;;;;;14.23;6.75;;;;;;;;;;4991602;28;20026;-76
2023/06/09 14:04:22;;;;;;;10.07;5.25;;;;;;;;;;4984279;28;20026;-75
2023/06/09 14:06:49;;;;;;;8.27;4.68;;;;;;;;;;5000555;28;20032;-78
2023/06/09 14:09:15;;;;;;;8.63;5.28;;;;;;;;;;5008029;28;20044;-76
2023/06/09 14:11:42;;;;;;;7.75;4.05;;;;;;;;;;5007298;28;20422;-77
2023/06/09 14:14:08;;;;;;;18.63;6.47;;;;;;;;;;4982699;28;20046;-76
2023/06/09 14:16:34;;;;;;;3.65;3.30;;;;;;;;;;4977724;28;20066;-76
2023/06/09 14:19:02;;;;;;;4.57;3.20;;;;;;;;;;5011310;28;20050;-77
2023/06/09 14:21:27;;;;;;;4.97;3.80;;;;;;;;;;4993279;28;20018;-77
2023/06/09 14:23:53;;;;;;;5.75;3.35;;;;;;;;;;5003570;28;20199;-75
2023/06/09 14:26:19;;;;;;;4.85;3.92;;;;;;;;;;4980226;28;20053;-74
2023/06/09 14:28:44;;;;;;;4.05;3.28;;;;;;;;;;4984986;28;20025;-75
2023/06/09 14:31:10;;;;;;;6.20;4.53;;;;;;;;;;4978253;28;20030;-75
2023/06/09 14:33:36;;;;;;;7.03;4.30;;;;;;;;;;4985243;28;20053;-76
2023/06/09 14:36:02;;;;;;;8.48;4.57;;;;;;;;;;5006124;28;20022;-76
2023/06/09 14:38:28;;;;;;;7.30;4.18;;;;;;;;;;5004093;28;20034;-74
2023/06/09 14:40:54;;;;;;;11.80;6.13;;;;;;;;;;4980238;28;20359;-76
2023/06/09 14:43:22;;;;;;;5.35;4.50;;;;;;;;;;4984772;28;20022;-76
2023/06/09 14:45:47;;;;;;;9.90;5.15;;;;;;;;;;4982274;28;20048;-76